sensor_id;sensor_type;location;lat;lon;timestamp;temperature;humidity
2907;DHT22;1463;51.070;16.998;2022-07-05T00:01:23;21.50;99.90
2907;DHT22;1463;51.070;16.998;2022-07-05T00:03:50;21.50;99.90
2907;DHT22;1463;51.070;16.998;2022-07-05T00:06:18;21.50;99.90
2907;DHT22;1463;51.070;16.998;2022-07-05T00:08:45;21.40;99.90
2907;DHT22;1463;51.070;16.998;2022-07-05T00:11:13;21.40;99.90
2907;DHT22;1463;51.070;16.998;2022-07-05T00:13:40;21.30;99.90
2907;DHT22;1463;51.070;16.998;2022-07-05T00:16:07;21.20;99.90
2907;DHT22;1463;51.070;16.998;2022-07-05T00:18:34;21.20;99.90
2907;DHT22;1463;51.070;16.998;2022-07-05T00:21:01;21.20;99.90
2907;DHT22;1463;51.070;16.998;2022-07-05T00:23:30;21.20;99.90
2907;DHT22;1463;51.070;16.998;2022-07-05T00:25:57;21.20;99.90
2907;DHT22;1463;51.070;16.998;2022-07-05T00:28:24;21.10;99.90
2907;DHT22;1463;51.070;16.998;2022-07-05T00:30:51;21.20;99.90
2907;DHT22;1463;51.070;16.998;2022-07-05T00:33:19;21.10;99.90
2907;DHT22;1463;51.070;16.998;2022-07-05T00:35:47;21.10;99.90
2907;DHT22;1463;51.070;16.998;2022-07-05T00:38:14;21.10;99.90
2907;DHT22;1463;51.070;16.998;2022-07-05T00:40:44;21.20;99.90
2907;DHT22;1463;51.070;16.998;2022-07-05T00:43:11;21.20;99.90
2907;DHT22;1463;51.070;16.998;2022-07-05T00:45:38;21.20;99.90
2907;DHT22;1463;51.070;16.998;2022-07-05T00:48:05;21.30;99.90
2907;DHT22;1463;51.070;16.998;2022-07-05T00:50:33;21.30;99.90
2907;DHT22;1463;51.070;16.998;2022-07-05T00:53:00;21.30;99.90
2907;DHT22;1463;51.070;16.998;2022-07-05T00:55:27;21.20;99.90
2907;DHT22;1463;51.070;16.998;2022-07-05T00:57:56;21.20;99.90
2907;DHT22;1463;51.070;16.998;2022-07-05T01:00:23;21.30;99.90
2907;DHT22;1463;51.070;16.998;2022-07-05T01:02:50;21.30;99.90
2907;DHT22;1463;51.070;16.998;2022-07-05T01:05:18;21.30;99.90
2907;DHT22;1463;51.070;16.998;2022-07-05T01:07:45;21.30;99.90
2907;DHT22;1463;51.070;16.998;2022-07-05T01:10:12;21.30;99.90
2907;DHT22;1463;51.070;16.998;2022-07-05T01:12:40;21.40;99.90
2907;DHT22;1463;51.070;16.998;2022-07-05T01:15:10;21.40;99.90
2907;DHT22;1463;51.070;16.998;2022-07-05T01:17:37;21.40;99.90
2907;DHT22;1463;51.070;16.998;2022-07-05T01:20:05;21.40;99.90
2907;DHT22;1463;51.070;16.998;2022-07-05T01:22:46;21.40;99.90
2907;DHT22;1463;51.070;16.998;2022-07-05T01:25:16;21.40;99.90
2907;DHT22;1463;51.070;16.998;2022-07-05T01:27:44;21.40;99.90
2907;DHT22;1463;51.070;16.998;2022-07-05T01:30:11;21.40;99.90
2907;DHT22;1463;51.070;16.998;2022-07-05T01:32:39;21.30;99.90
2907;DHT22;1463;51.070;16.998;2022-07-05T01:35:07;21.20;99.90
2907;DHT22;1463;51.070;16.998;2022-07-05T01:37:34;21.20;99.90
2907;DHT22;1463;51.070;16.998;2022-07-05T01:40:04;21.20;99.90
2907;DHT22;1463;51.070;16.998;2022-07-05T01:42:31;21.20;99.90
2907;DHT22;1463;51.070;16.998;2022-07-05T01:44:58;21.10;99.90
2907;DHT22;1463;51.070;16.998;2022-07-05T01:47:26;21.10;99.90
2907;DHT22;1463;51.070;16.998;2022-07-05T01:49:53;21.10;99.90
2907;DHT22;1463;51.070;16.998;2022-07-05T01:52:21;21.00;99.90
2907;DHT22;1463;51.070;16.998;2022-07-05T01:54:49;21.00;99.90
2907;DHT22;1463;51.070;16.998;2022-07-05T01:57:17;20.90;99.90
2907;DHT22;1463;51.070;16.998;2022-07-05T01:59:45;20.90;99.90
2907;DHT22;1463;51.070;16.998;2022-07-05T02:02:12;21.00;99.90
2907;DHT22;1463;51.070;16.998;2022-07-05T02:04:39;21.00;99.90
2907;DHT22;1463;51.070;16.998;2022-07-05T02:07:07;20.90;99.90
2907;DHT22;1463;51.070;16.998;2022-07-05T02:09:34;21.00;99.90
2907;DHT22;1463;51.070;16.998;2022-07-05T02:12:02;21.00;99.90
2907;DHT22;1463;51.070;16.998;2022-07-05T02:14:31;21.10;99.90
2907;DHT22;1463;51.070;16.998;2022-07-05T02:16:58;21.10;99.90
2907;DHT22;1463;51.070;16.998;2022-07-05T02:19:25;21.10;99.90
2907;DHT22;1463;51.070;16.998;2022-07-05T02:21:53;21.10;99.90
2907;DHT22;1463;51.070;16.998;2022-07-05T02:24:20;21.10;99.90
2907;DHT22;1463;51.070;16.998;2022-07-05T02:26:48;21.10;99.90
2907;DHT22;1463;51.070;16.998;2022-07-05T02:29:15;21.20;99.90
2907;DHT22;1463;51.070;16.998;2022-07-05T02:31:43;21.10;99.90
2907;DHT22;1463;51.070;16.998;2022-07-05T02:34:11;21.20;99.90
2907;DHT22;1463;51.070;16.998;2022-07-05T02:36:38;21.10;99.90
2907;DHT22;1463;51.070;16.998;2022-07-05T02:39:05;21.20;99.90
2907;DHT22;1463;51.070;16.998;2022-07-05T02:41:33;21.20;99.90
2907;DHT22;1463;51.070;16.998;2022-07-05T02:44:00;21.20;99.90
2907;DHT22;1463;51.070;16.998;2022-07-05T02:46:27;21.20;99.90
2907;DHT22;1463;51.070;16.998;2022-07-05T02:48:56;21.20;99.90
2907;DHT22;1463;51.070;16.998;2022-07-05T02:51:23;21.20;99.90
2907;DHT22;1463;51.070;16.998;2022-07-05T02:53:50;21.20;99.90
2907;DHT22;1463;51.070;16.998;2022-07-05T02:56:17;21.10;99.90
2907;DHT22;1463;51.070;16.998;2022-07-05T02:58:44;21.00;99.90
2907;DHT22;1463;51.070;16.998;2022-07-05T03:01:12;21.00;99.90
2907;DHT22;1463;51.070;16.998;2022-07-05T03:03:39;21.00;99.90
2907;DHT22;1463;51.070;16.998;2022-07-05T03:06:08;21.10;99.90
2907;DHT22;1463;51.070;16.998;2022-07-05T03:08:35;21.10;99.90
2907;DHT22;1463;51.070;16.998;2022-07-05T03:11:03;21.10;99.90
2907;DHT22;1463;51.070;16.998;2022-07-05T03:13:30;21.10;99.90
2907;DHT22;1463;51.070;16.998;2022-07-05T03:15:57;21.10;99.90
2907;DHT22;1463;51.070;16.998;2022-07-05T03:18:24;21.20;99.90
2907;DHT22;1463;51.070;16.998;2022-07-05T03:20:51;21.20;99.90
2907;DHT22;1463;51.070;16.998;2022-07-05T03:23:20;21.30;99.90
2907;DHT22;1463;51.070;16.998;2022-07-05T03:25:47;21.20;99.90
2907;DHT22;1463;51.070;16.998;2022-07-05T03:28:14;21.30;99.90
2907;DHT22;1463;51.070;16.998;2022-07-05T03:30:41;21.20;99.90
2907;DHT22;1463;51.070;16.998;2022-07-05T03:33:08;21.10;99.90
2907;DHT22;1463;51.070;16.998;2022-07-05T03:35:36;21.00;99.90
2907;DHT22;1463;51.070;16.998;2022-07-05T03:38:03;20.90;99.90
2907;DHT22;1463;51.070;16.998;2022-07-05T03:40:32;20.90;99.90
2907;DHT22;1463;51.070;16.998;2022-07-05T03:42:59;21.00;99.90
2907;DHT22;1463;51.070;16.998;2022-07-05T03:45:26;21.00;99.90
2907;DHT22;1463;51.070;16.998;2022-07-05T03:47:57;21.10;99.90
2907;DHT22;1463;51.070;16.998;2022-07-05T03:50:24;21.00;99.90
2907;DHT22;1463;51.070;16.998;2022-07-05T03:52:51;21.00;99.90
2907;DHT22;1463;51.070;16.998;2022-07-05T03:55:19;21.00;99.90
2907;DHT22;1463;51.070;16.998;2022-07-05T03:57:48;21.00;99.90
2907;DHT22;1463;51.070;16.998;2022-07-05T04:00:15;21.00;99.90
2907;DHT22;1463;51.070;16.998;2022-07-05T04:02:42;20.90;99.90
2907;DHT22;1463;51.070;16.998;2022-07-05T04:05:09;20.90;99.90
2907;DHT22;1463;51.070;16.998;2022-07-05T04:07:46;20.90;99.90
2907;DHT22;1463;51.070;16.998;2022-07-05T04:10:13;20.90;99.90
2907;DHT22;1463;51.070;16.998;2022-07-05T04:12:40;20.90;99.90
2907;DHT22;1463;51.070;16.998;2022-07-05T04:15:09;20.90;99.90
2907;DHT22;1463;51.070;16.998;2022-07-05T04:17:45;20.90;99.90
2907;DHT22;1463;51.070;16.998;2022-07-05T04:20:12;21.00;99.90
2907;DHT22;1463;51.070;16.998;2022-07-05T04:22:39;21.10;99.90
2907;DHT22;1463;51.070;16.998;2022-07-05T04:25:07;21.10;99.90
2907;DHT22;1463;51.070;16.998;2022-07-05T04:27:43;21.10;99.90
2907;DHT22;1463;51.070;16.998;2022-07-05T04:30:12;21.10;99.90
2907;DHT22;1463;51.070;16.998;2022-07-05T04:32:39;21.20;99.90
2907;DHT22;1463;51.070;16.998;2022-07-05T04:35:06;21.10;99.90
2907;DHT22;1463;51.070;16.998;2022-07-05T04:37:34;21.20;99.90
2907;DHT22;1463;51.070;16.998;2022-07-05T04:40:01;21.20;99.90
2907;DHT22;1463;51.070;16.998;2022-07-05T04:42:28;21.20;99.90
2907;DHT22;1463;51.070;16.998;2022-07-05T04:44:55;21.30;99.90
2907;DHT22;1463;51.070;16.998;2022-07-05T04:47:24;21.30;99.90
2907;DHT22;1463;51.070;16.998;2022-07-05T04:49:52;21.30;99.90
2907;DHT22;1463;51.070;16.998;2022-07-05T04:52:19;21.30;99.90
2907;DHT22;1463;51.070;16.998;2022-07-05T04:54:47;21.30;99.90
2907;DHT22;1463;51.070;16.998;2022-07-05T04:57:14;21.40;99.90
2907;DHT22;1463;51.070;16.998;2022-07-05T04:59:42;21.40;99.90
2907;DHT22;1463;51.070;16.998;2022-07-05T05:02:09;21.40;99.90
2907;DHT22;1463;51.070;16.998;2022-07-05T05:04:37;21.40;99.90
2907;DHT22;1463;51.070;16.998;2022-07-05T05:07:04;21.40;99.90
2907;DHT22;1463;51.070;16.998;2022-07-05T05:09:32;21.40;99.90
2907;DHT22;1463;51.070;16.998;2022-07-05T05:11:59;21.40;99.90
2907;DHT22;1463;51.070;16.998;2022-07-05T05:14:26;21.30;99.90
2907;DHT22;1463;51.070;16.998;2022-07-05T05:16:54;21.30;99.90
2907;DHT22;1463;51.070;16.998;2022-07-05T05:19:21;21.40;99.90
2907;DHT22;1463;51.070;16.998;2022-07-05T05:21:50;21.40;99.90
2907;DHT22;1463;51.070;16.998;2022-07-05T05:24:17;21.40;99.90
2907;DHT22;1463;51.070;16.998;2022-07-05T05:26:44;21.40;99.90
2907;DHT22;1463;51.070;16.998;2022-07-05T05:29:11;21.40;99.90
2907;DHT22;1463;51.070;16.998;2022-07-05T05:31:38;21.40;99.90
2907;DHT22;1463;51.070;16.998;2022-07-05T05:34:05;21.40;99.90
2907;DHT22;1463;51.070;16.998;2022-07-05T05:36:32;21.30;99.90
2907;DHT22;1463;51.070;16.998;2022-07-05T05:39:01;21.30;99.90
2907;DHT22;1463;51.070;16.998;2022-07-05T05:41:29;21.30;99.90
2907;DHT22;1463;51.070;16.998;2022-07-05T05:43:56;21.30;99.90
2907;DHT22;1463;51.070;16.998;2022-07-05T05:46:23;21.40;99.90
2907;DHT22;1463;51.070;16.998;2022-07-05T05:48:50;21.40;99.90
2907;DHT22;1463;51.070;16.998;2022-07-05T05:51:18;21.40;99.90
2907;DHT22;1463;51.070;16.998;2022-07-05T05:53:46;21.40;99.90
2907;DHT22;1463;51.070;16.998;2022-07-05T05:56:15;21.40;99.90
2907;DHT22;1463;51.070;16.998;2022-07-05T05:58:42;21.40;99.90
2907;DHT22;1463;51.070;16.998;2022-07-05T06:01:09;21.40;99.90
2907;DHT22;1463;51.070;16.998;2022-07-05T06:03:36;21.40;99.90
2907;DHT22;1463;51.070;16.998;2022-07-05T06:06:04;21.50;99.90
2907;DHT22;1463;51.070;16.998;2022-07-05T06:08:31;21.50;99.90
2907;DHT22;1463;51.070;16.998;2022-07-05T06:10:58;21.50;99.90
2907;DHT22;1463;51.070;16.998;2022-07-05T06:13:31;21.50;99.90
2907;DHT22;1463;51.070;16.998;2022-07-05T06:15:58;21.50;99.90
2907;DHT22;1463;51.070;16.998;2022-07-05T06:18:25;21.60;99.90
2907;DHT22;1463;51.070;16.998;2022-07-05T06:20:52;21.60;99.90
2907;DHT22;1463;51.070;16.998;2022-07-05T06:23:19;21.60;99.90
2907;DHT22;1463;51.070;16.998;2022-07-05T06:25:46;21.60;99.90
2907;DHT22;1463;51.070;16.998;2022-07-05T06:28:13;21.60;99.90
2907;DHT22;1463;51.070;16.998;2022-07-05T06:30:42;21.60;99.90
2907;DHT22;1463;51.070;16.998;2022-07-05T06:33:09;21.60;99.90
2907;DHT22;1463;51.070;16.998;2022-07-05T06:35:36;21.50;99.90
2907;DHT22;1463;51.070;16.998;2022-07-05T06:38:05;21.40;99.90
2907;DHT22;1463;51.070;16.998;2022-07-05T06:40:33;21.40;99.90
2907;DHT22;1463;51.070;16.998;2022-07-05T06:43:02;21.40;99.90
2907;DHT22;1463;51.070;16.998;2022-07-05T06:45:29;21.40;99.90
2907;DHT22;1463;51.070;16.998;2022-07-05T06:47:58;21.40;99.90
2907;DHT22;1463;51.070;16.998;2022-07-05T06:50:26;21.30;99.90
2907;DHT22;1463;51.070;16.998;2022-07-05T06:52:53;21.30;99.90
2907;DHT22;1463;51.070;16.998;2022-07-05T06:55:21;21.30;99.90
2907;DHT22;1463;51.070;16.998;2022-07-05T06:57:49;21.30;99.90
2907;DHT22;1463;51.070;16.998;2022-07-05T07:00:16;21.30;99.90
2907;DHT22;1463;51.070;16.998;2022-07-05T07:02:43;21.30;99.90
2907;DHT22;1463;51.070;16.998;2022-07-05T07:05:12;21.30;99.90
2907;DHT22;1463;51.070;16.998;2022-07-05T07:07:39;21.30;99.90
2907;DHT22;1463;51.070;16.998;2022-07-05T07:10:23;21.20;99.90
2907;DHT22;1463;51.070;16.998;2022-07-05T07:12:51;21.10;99.90
2907;DHT22;1463;51.070;16.998;2022-07-05T07:15:18;21.10;99.90
2907;DHT22;1463;51.070;16.998;2022-07-05T07:17:45;21.10;99.90
2907;DHT22;1463;51.070;16.998;2022-07-05T07:20:14;21.10;99.90
2907;DHT22;1463;51.070;16.998;2022-07-05T07:22:41;21.00;99.90
2907;DHT22;1463;51.070;16.998;2022-07-05T07:25:08;21.00;99.90
2907;DHT22;1463;51.070;16.998;2022-07-05T07:27:40;21.00;99.90
2907;DHT22;1463;51.070;16.998;2022-07-05T07:30:09;21.10;99.90
2907;DHT22;1463;51.070;16.998;2022-07-05T07:32:37;21.20;99.90
2907;DHT22;1463;51.070;16.998;2022-07-05T07:35:05;21.20;99.90
2907;DHT22;1463;51.070;16.998;2022-07-05T07:37:34;21.30;99.90
2907;DHT22;1463;51.070;16.998;2022-07-05T07:40:01;21.20;99.90
2907;DHT22;1463;51.070;16.998;2022-07-05T07:42:28;21.10;99.90
2907;DHT22;1463;51.070;16.998;2022-07-05T07:44:55;21.00;99.90
2907;DHT22;1463;51.070;16.998;2022-07-05T07:47:22;21.00;99.90
2907;DHT22;1463;51.070;16.998;2022-07-05T07:49:50;21.00;99.90
2907;DHT22;1463;51.070;16.998;2022-07-05T07:52:17;21.10;99.90
2907;DHT22;1463;51.070;16.998;2022-07-05T07:54:46;21.10;99.90
2907;DHT22;1463;51.070;16.998;2022-07-05T07:57:14;21.10;99.90
2907;DHT22;1463;51.070;16.998;2022-07-05T07:59:41;21.00;99.90
2907;DHT22;1463;51.070;16.998;2022-07-05T08:02:08;21.00;99.90
2907;DHT22;1463;51.070;16.998;2022-07-05T08:04:36;21.00;99.90
2907;DHT22;1463;51.070;16.998;2022-07-05T08:07:03;21.10;99.90
2907;DHT22;1463;51.070;16.998;2022-07-05T08:09:31;21.10;99.90
2907;DHT22;1463;51.070;16.998;2022-07-05T08:11:59;21.00;99.90
2907;DHT22;1463;51.070;16.998;2022-07-05T08:14:26;21.00;99.90
2907;DHT22;1463;51.070;16.998;2022-07-05T08:16:54;20.90;99.90
2907;DHT22;1463;51.070;16.998;2022-07-05T08:19:21;20.90;99.90
2907;DHT22;1463;51.070;16.998;2022-07-05T08:22:06;20.90;99.90
2907;DHT22;1463;51.070;16.998;2022-07-05T08:24:34;20.80;99.90
2907;DHT22;1463;51.070;16.998;2022-07-05T08:27:03;20.80;99.90
2907;DHT22;1463;51.070;16.998;2022-07-05T08:29:30;20.80;99.90
2907;DHT22;1463;51.070;16.998;2022-07-05T08:31:59;20.80;99.90
2907;DHT22;1463;51.070;16.998;2022-07-05T08:34:27;20.70;99.90
2907;DHT22;1463;51.070;16.998;2022-07-05T08:36:54;20.60;99.90
2907;DHT22;1463;51.070;16.998;2022-07-05T08:39:21;20.60;99.90
2907;DHT22;1463;51.070;16.998;2022-07-05T08:41:48;20.60;99.90
2907;DHT22;1463;51.070;16.998;2022-07-05T08:44:19;20.60;99.90
2907;DHT22;1463;51.070;16.998;2022-07-05T08:46:48;20.50;99.90
2907;DHT22;1463;51.070;16.998;2022-07-05T08:49:19;20.50;99.90
2907;DHT22;1463;51.070;16.998;2022-07-05T08:51:47;20.40;99.90
2907;DHT22;1463;51.070;16.998;2022-07-05T08:54:15;20.40;99.90
2907;DHT22;1463;51.070;16.998;2022-07-05T08:56:43;20.40;99.90
2907;DHT22;1463;51.070;16.998;2022-07-05T08:59:13;20.30;99.90
2907;DHT22;1463;51.070;16.998;2022-07-05T09:01:46;20.20;99.90
2907;DHT22;1463;51.070;16.998;2022-07-05T09:04:16;20.20;99.90
2907;DHT22;1463;51.070;16.998;2022-07-05T09:06:46;20.20;99.90
2907;DHT22;1463;51.070;16.998;2022-07-05T09:09:17;20.20;99.90
2907;DHT22;1463;51.070;16.998;2022-07-05T09:11:46;20.20;99.90
2907;DHT22;1463;51.070;16.998;2022-07-05T09:14:19;20.20;99.90
2907;DHT22;1463;51.070;16.998;2022-07-05T09:16:50;20.20;99.90
2907;DHT22;1463;51.070;16.998;2022-07-05T09:19:19;20.20;99.90
2907;DHT22;1463;51.070;16.998;2022-07-05T09:21:47;20.20;99.90
2907;DHT22;1463;51.070;16.998;2022-07-05T09:24:15;20.10;99.90
2907;DHT22;1463;51.070;16.998;2022-07-05T09:26:44;20.20;99.90
2907;DHT22;1463;51.070;16.998;2022-07-05T09:29:15;20.20;99.90
2907;DHT22;1463;51.070;16.998;2022-07-05T09:31:44;20.20;99.90
2907;DHT22;1463;51.070;16.998;2022-07-05T09:34:15;20.20;99.90
2907;DHT22;1463;51.070;16.998;2022-07-05T09:36:50;20.20;99.90
2907;DHT22;1463;51.070;16.998;2022-07-05T09:39:19;20.20;99.90
2907;DHT22;1463;51.070;16.998;2022-07-05T09:42:09;20.20;99.90
2907;DHT22;1463;51.070;16.998;2022-07-05T09:44:38;20.30;99.90
2907;DHT22;1463;51.070;16.998;2022-07-05T09:47:10;20.30;99.90
2907;DHT22;1463;51.070;16.998;2022-07-05T09:49:43;20.30;99.90
2907;DHT22;1463;51.070;16.998;2022-07-05T09:52:12;20.30;99.90
2907;DHT22;1463;51.070;16.998;2022-07-05T09:55:03;20.30;99.90
2907;DHT22;1463;51.070;16.998;2022-07-05T09:57:32;20.30;99.90
2907;DHT22;1463;51.070;16.998;2022-07-05T10:00:01;20.40;99.90
2907;DHT22;1463;51.070;16.998;2022-07-05T10:02:36;20.40;99.90
2907;DHT22;1463;51.070;16.998;2022-07-05T10:05:12;20.40;99.90
2907;DHT22;1463;51.070;16.998;2022-07-05T10:07:42;20.40;99.90
2907;DHT22;1463;51.070;16.998;2022-07-05T10:10:16;20.40;99.90
2907;DHT22;1463;51.070;16.998;2022-07-05T10:12:45;20.50;99.90
2907;DHT22;1463;51.070;16.998;2022-07-05T10:15:16;20.50;99.90
2907;DHT22;1463;51.070;16.998;2022-07-05T10:17:46;20.50;99.90
2907;DHT22;1463;51.070;16.998;2022-07-05T10:20:19;20.60;99.90
2907;DHT22;1463;51.070;16.998;2022-07-05T10:22:49;20.60;99.90
2907;DHT22;1463;51.070;16.998;2022-07-05T10:25:19;20.60;99.90
2907;DHT22;1463;51.070;16.998;2022-07-05T10:27:49;20.60;99.90
2907;DHT22;1463;51.070;16.998;2022-07-05T10:30:20;20.50;99.90
2907;DHT22;1463;51.070;16.998;2022-07-05T10:32:50;20.50;99.90
2907;DHT22;1463;51.070;16.998;2022-07-05T10:35:20;20.50;99.90
2907;DHT22;1463;51.070;16.998;2022-07-05T10:37:49;20.30;99.90
2907;DHT22;1463;51.070;16.998;2022-07-05T10:40:18;20.30;99.90
2907;DHT22;1463;51.070;16.998;2022-07-05T10:42:48;20.40;99.90
2907;DHT22;1463;51.070;16.998;2022-07-05T10:45:23;20.30;99.90
2907;DHT22;1463;51.070;16.998;2022-07-05T10:50:43;20.30;99.90
2907;DHT22;1463;51.070;16.998;2022-07-05T10:53:11;20.40;99.90
2907;DHT22;1463;51.070;16.998;2022-07-05T10:55:50;20.50;99.90
2907;DHT22;1463;51.070;16.998;2022-07-05T10:58:19;20.70;99.90
2907;DHT22;1463;51.070;16.998;2022-07-05T11:00:48;20.70;99.90
2907;DHT22;1463;51.070;16.998;2022-07-05T11:03:38;20.80;99.90
2907;DHT22;1463;51.070;16.998;2022-07-05T11:06:09;20.80;99.90
2907;DHT22;1463;51.070;16.998;2022-07-05T11:11:35;20.90;99.90
2907;DHT22;1463;51.070;16.998;2022-07-05T11:14:04;20.90;99.90
2907;DHT22;1463;51.070;16.998;2022-07-05T11:16:33;20.90;99.90
2907;DHT22;1463;51.070;16.998;2022-07-05T11:19:04;20.90;99.90
2907;DHT22;1463;51.070;16.998;2022-07-05T11:21:33;21.00;99.90
2907;DHT22;1463;51.070;16.998;2022-07-05T11:26:45;21.10;99.90
2907;DHT22;1463;51.070;16.998;2022-07-05T11:32:08;21.20;99.90
2907;DHT22;1463;51.070;16.998;2022-07-05T11:34:37;21.30;99.90
2907;DHT22;1463;51.070;16.998;2022-07-05T11:37:19;21.30;99.90
2907;DHT22;1463;51.070;16.998;2022-07-05T11:42:39;21.40;99.90
2907;DHT22;1463;51.070;16.998;2022-07-05T11:45:14;21.40;99.90
2907;DHT22;1463;51.070;16.998;2022-07-05T11:47:42;21.40;99.90
2907;DHT22;1463;51.070;16.998;2022-07-05T11:50:11;21.50;99.90
2907;DHT22;1463;51.070;16.998;2022-07-05T11:52:41;21.70;99.90
2907;DHT22;1463;51.070;16.998;2022-07-05T11:55:10;22.00;99.90
2907;DHT22;1463;51.070;16.998;2022-07-05T11:57:48;22.10;99.90
2907;DHT22;1463;51.070;16.998;2022-07-05T12:00:25;22.30;99.90
2907;DHT22;1463;51.070;16.998;2022-07-05T12:02:54;22.60;99.90
2907;DHT22;1463;51.070;16.998;2022-07-05T12:05:28;22.80;99.90
2907;DHT22;1463;51.070;16.998;2022-07-05T12:08:00;22.80;99.90
2907;DHT22;1463;51.070;16.998;2022-07-05T12:10:29;22.80;99.90
2907;DHT22;1463;51.070;16.998;2022-07-05T12:13:15;22.80;99.90
2907;DHT22;1463;51.070;16.998;2022-07-05T12:15:43;22.90;99.90
2907;DHT22;1463;51.070;16.998;2022-07-05T12:18:13;22.90;99.90
2907;DHT22;1463;51.070;16.998;2022-07-05T12:20:42;22.90;99.90
2907;DHT22;1463;51.070;16.998;2022-07-05T12:23:13;22.90;99.90
2907;DHT22;1463;51.070;16.998;2022-07-05T12:25:41;22.90;99.90
2907;DHT22;1463;51.070;16.998;2022-07-05T12:28:09;23.00;99.90
2907;DHT22;1463;51.070;16.998;2022-07-05T12:30:38;23.10;99.90
2907;DHT22;1463;51.070;16.998;2022-07-05T12:33:06;23.30;99.90
2907;DHT22;1463;51.070;16.998;2022-07-05T12:35:38;23.50;99.90
2907;DHT22;1463;51.070;16.998;2022-07-05T12:38:08;23.60;99.90
2907;DHT22;1463;51.070;16.998;2022-07-05T12:40:38;23.70;99.90
2907;DHT22;1463;51.070;16.998;2022-07-05T12:43:08;23.90;99.90
2907;DHT22;1463;51.070;16.998;2022-07-05T12:45:36;24.00;99.90
2907;DHT22;1463;51.070;16.998;2022-07-05T12:48:06;23.90;99.90
2907;DHT22;1463;51.070;16.998;2022-07-05T12:50:47;23.90;99.90
2907;DHT22;1463;51.070;16.998;2022-07-05T12:53:14;23.80;99.90
2907;DHT22;1463;51.070;16.998;2022-07-05T12:56:01;23.80;99.90
2907;DHT22;1463;51.070;16.998;2022-07-05T12:58:55;23.60;99.90
2907;DHT22;1463;51.070;16.998;2022-07-05T13:01:23;23.70;99.90
2907;DHT22;1463;51.070;16.998;2022-07-05T13:04:04;23.80;99.90
2907;DHT22;1463;51.070;16.998;2022-07-05T13:06:44;23.70;99.90
2907;DHT22;1463;51.070;16.998;2022-07-05T13:09:13;23.80;99.90
2907;DHT22;1463;51.070;16.998;2022-07-05T13:11:43;23.70;99.90
2907;DHT22;1463;51.070;16.998;2022-07-05T13:14:11;23.60;99.90
2907;DHT22;1463;51.070;16.998;2022-07-05T13:16:41;23.50;99.90
2907;DHT22;1463;51.070;16.998;2022-07-05T13:19:11;23.50;99.90
2907;DHT22;1463;51.070;16.998;2022-07-05T13:21:40;23.60;99.90
2907;DHT22;1463;51.070;16.998;2022-07-05T13:24:08;23.70;99.90
2907;DHT22;1463;51.070;16.998;2022-07-05T13:26:38;23.90;99.90
2907;DHT22;1463;51.070;16.998;2022-07-05T13:29:07;24.00;99.90
2907;DHT22;1463;51.070;16.998;2022-07-05T13:31:35;24.00;99.90
2907;DHT22;1463;51.070;16.998;2022-07-05T13:34:03;24.00;99.90
2907;DHT22;1463;51.070;16.998;2022-07-05T13:36:31;24.10;99.90
2907;DHT22;1463;51.070;16.998;2022-07-05T13:39:00;24.10;99.90
2907;DHT22;1463;51.070;16.998;2022-07-05T13:41:27;24.10;99.90
2907;DHT22;1463;51.070;16.998;2022-07-05T13:43:55;24.20;99.90
2907;DHT22;1463;51.070;16.998;2022-07-05T13:46:26;24.20;99.90
2907;DHT22;1463;51.070;16.998;2022-07-05T13:48:54;24.20;99.90
2907;DHT22;1463;51.070;16.998;2022-07-05T13:51:21;24.10;99.90
2907;DHT22;1463;51.070;16.998;2022-07-05T13:53:48;24.20;99.90
2907;DHT22;1463;51.070;16.998;2022-07-05T13:56:16;24.20;99.90
2907;DHT22;1463;51.070;16.998;2022-07-05T13:58:44;24.30;99.90
2907;DHT22;1463;51.070;16.998;2022-07-05T14:01:13;24.20;99.90
2907;DHT22;1463;51.070;16.998;2022-07-05T14:03:42;24.10;99.90
2907;DHT22;1463;51.070;16.998;2022-07-05T14:06:09;24.00;99.90
2907;DHT22;1463;51.070;16.998;2022-07-05T14:08:38;24.00;99.90
2907;DHT22;1463;51.070;16.998;2022-07-05T14:11:08;24.00;99.90
2907;DHT22;1463;51.070;16.998;2022-07-05T14:13:39;23.80;99.90
2907;DHT22;1463;51.070;16.998;2022-07-05T14:16:08;23.80;99.90
2907;DHT22;1463;51.070;16.998;2022-07-05T14:18:41;23.90;99.90
2907;DHT22;1463;51.070;16.998;2022-07-05T14:21:09;24.00;99.90
2907;DHT22;1463;51.070;16.998;2022-07-05T14:23:42;24.00;99.90
2907;DHT22;1463;51.070;16.998;2022-07-05T14:26:11;24.10;99.90
2907;DHT22;1463;51.070;16.998;2022-07-05T14:28:39;24.00;99.90
2907;DHT22;1463;51.070;16.998;2022-07-05T14:31:10;24.00;99.90
2907;DHT22;1463;51.070;16.998;2022-07-05T14:33:38;24.00;99.90
2907;DHT22;1463;51.070;16.998;2022-07-05T14:36:08;24.00;99.90
2907;DHT22;1463;51.070;16.998;2022-07-05T14:38:36;24.00;99.90
2907;DHT22;1463;51.070;16.998;2022-07-05T14:41:04;24.00;99.90
2907;DHT22;1463;51.070;16.998;2022-07-05T14:43:32;24.00;99.90
2907;DHT22;1463;51.070;16.998;2022-07-05T14:46:01;24.00;99.90
2907;DHT22;1463;51.070;16.998;2022-07-05T14:48:29;23.90;99.90
2907;DHT22;1463;51.070;16.998;2022-07-05T14:50:57;23.80;99.90
2907;DHT22;1463;51.070;16.998;2022-07-05T14:53:26;23.90;99.90
2907;DHT22;1463;51.070;16.998;2022-07-05T14:55:53;24.00;99.90
2907;DHT22;1463;51.070;16.998;2022-07-05T14:58:21;24.00;99.90
2907;DHT22;1463;51.070;16.998;2022-07-05T15:00:48;24.00;99.90
2907;DHT22;1463;51.070;16.998;2022-07-05T15:03:15;24.00;99.90
2907;DHT22;1463;51.070;16.998;2022-07-05T15:05:43;24.10;99.90
2907;DHT22;1463;51.070;16.998;2022-07-05T15:08:10;24.10;99.90
2907;DHT22;1463;51.070;16.998;2022-07-05T15:10:39;24.00;99.90
2907;DHT22;1463;51.070;16.998;2022-07-05T15:13:06;24.00;99.90
2907;DHT22;1463;51.070;16.998;2022-07-05T15:15:34;23.90;99.90
2907;DHT22;1463;51.070;16.998;2022-07-05T15:18:01;23.80;99.90
2907;DHT22;1463;51.070;16.998;2022-07-05T15:20:28;23.80;99.90
2907;DHT22;1463;51.070;16.998;2022-07-05T15:22:55;23.80;99.90
2907;DHT22;1463;51.070;16.998;2022-07-05T15:25:23;23.80;99.90
2907;DHT22;1463;51.070;16.998;2022-07-05T15:27:52;23.70;99.90
2907;DHT22;1463;51.070;16.998;2022-07-05T15:30:19;23.80;99.90
2907;DHT22;1463;51.070;16.998;2022-07-05T15:32:48;23.80;99.90
2907;DHT22;1463;51.070;16.998;2022-07-05T15:35:15;23.80;99.90
2907;DHT22;1463;51.070;16.998;2022-07-05T15:37:43;23.80;99.90
2907;DHT22;1463;51.070;16.998;2022-07-05T15:40:10;23.90;99.90
2907;DHT22;1463;51.070;16.998;2022-07-05T15:42:37;23.90;99.90
2907;DHT22;1463;51.070;16.998;2022-07-05T15:45:06;24.00;99.90
2907;DHT22;1463;51.070;16.998;2022-07-05T15:47:34;23.90;99.90
2907;DHT22;1463;51.070;16.998;2022-07-05T15:50:03;23.90;99.90
2907;DHT22;1463;51.070;16.998;2022-07-05T15:52:30;23.80;99.90
2907;DHT22;1463;51.070;16.998;2022-07-05T15:54:58;23.80;99.90
2907;DHT22;1463;51.070;16.998;2022-07-05T15:57:25;23.80;99.90
2907;DHT22;1463;51.070;16.998;2022-07-05T15:59:54;23.80;99.90
2907;DHT22;1463;51.070;16.998;2022-07-05T16:02:23;23.80;99.90
2907;DHT22;1463;51.070;16.998;2022-07-05T16:04:51;23.90;99.90
2907;DHT22;1463;51.070;16.998;2022-07-05T16:07:18;23.90;99.90
2907;DHT22;1463;51.070;16.998;2022-07-05T16:09:45;24.00;99.90